sensor_id;sensor_type;location;lat;lon;timestamp;temperature;humidity
11264;DHT22;5689;48.798;9.070;2024-03-02T00:01:10;7.20;99.90
11264;DHT22;5689;48.798;9.070;2024-03-02T00:03:38;7.20;99.90
11264;DHT22;5689;48.798;9.070;2024-03-02T00:06:07;7.20;99.90
11264;DHT22;5689;48.798;9.070;2024-03-02T00:08:35;7.20;99.90
11264;DHT22;5689;48.798;9.070;2024-03-02T00:11:04;7.30;99.90
11264;DHT22;5689;48.798;9.070;2024-03-02T00:13:32;7.30;99.90
11264;DHT22;5689;48.798;9.070;2024-03-02T00:16:02;7.30;99.90
11264;DHT22;5689;48.798;9.070;2024-03-02T00:18:34;7.20;99.90
11264;DHT22;5689;48.798;9.070;2024-03-02T00:21:03;7.20;99.90
11264;DHT22;5689;48.798;9.070;2024-03-02T00:23:36;7.30;99.90
11264;DHT22;5689;48.798;9.070;2024-03-02T00:26:05;7.30;99.90
11264;DHT22;5689;48.798;9.070;2024-03-02T00:28:36;7.30;99.90
11264;DHT22;5689;48.798;9.070;2024-03-02T00:31:06;7.30;99.90
11264;DHT22;5689;48.798;9.070;2024-03-02T00:33:39;7.30;99.90
11264;DHT22;5689;48.798;9.070;2024-03-02T00:36:09;7.30;99.90
11264;DHT22;5689;48.798;9.070;2024-03-02T00:38:44;7.20;99.90
11264;DHT22;5689;48.798;9.070;2024-03-02T00:41:18;7.20;99.90
11264;DHT22;5689;48.798;9.070;2024-03-02T00:43:58;7.20;99.90
11264;DHT22;5689;48.798;9.070;2024-03-02T00:46:28;7.10;99.90
11264;DHT22;5689;48.798;9.070;2024-03-02T00:49:00;7.10;99.90
11264;DHT22;5689;48.798;9.070;2024-03-02T00:51:31;7.10;99.90
11264;DHT22;5689;48.798;9.070;2024-03-02T00:54:01;7.10;99.90
11264;DHT22;5689;48.798;9.070;2024-03-02T00:56:31;7.20;99.90
11264;DHT22;5689;48.798;9.070;2024-03-02T00:58:59;7.20;99.90
11264;DHT22;5689;48.798;9.070;2024-03-02T01:01:28;7.20;99.90
11264;DHT22;5689;48.798;9.070;2024-03-02T01:03:57;7.20;99.90
11264;DHT22;5689;48.798;9.070;2024-03-02T01:06:27;7.10;99.90
11264;DHT22;5689;48.798;9.070;2024-03-02T01:08:55;7.00;99.90
11264;DHT22;5689;48.798;9.070;2024-03-02T01:11:23;7.00;99.90
11264;DHT22;5689;48.798;9.070;2024-03-02T01:13:52;7.10;99.90
11264;DHT22;5689;48.798;9.070;2024-03-02T01:16:20;7.00;99.90
11264;DHT22;5689;48.798;9.070;2024-03-02T01:18:48;6.90;99.90
11264;DHT22;5689;48.798;9.070;2024-03-02T01:21:17;6.80;99.90
11264;DHT22;5689;48.798;9.070;2024-03-02T01:23:46;6.80;99.90
11264;DHT22;5689;48.798;9.070;2024-03-02T01:26:15;6.80;99.90
11264;DHT22;5689;48.798;9.070;2024-03-02T01:28:43;6.70;99.90
11264;DHT22;5689;48.798;9.070;2024-03-02T01:31:11;6.70;99.90
11264;DHT22;5689;48.798;9.070;2024-03-02T01:33:39;6.60;99.90
11264;DHT22;5689;48.798;9.070;2024-03-02T01:36:08;6.50;99.90
11264;DHT22;5689;48.798;9.070;2024-03-02T01:38:36;6.40;99.90
11264;DHT22;5689;48.798;9.070;2024-03-02T01:41:05;6.30;99.90
11264;DHT22;5689;48.798;9.070;2024-03-02T01:43:33;6.00;99.90
11264;DHT22;5689;48.798;9.070;2024-03-02T01:46:03;5.80;99.90
11264;DHT22;5689;48.798;9.070;2024-03-02T01:48:31;5.70;99.90
11264;DHT22;5689;48.798;9.070;2024-03-02T01:51:01;5.60;99.90
11264;DHT22;5689;48.798;9.070;2024-03-02T01:53:29;5.40;99.90
11264;DHT22;5689;48.798;9.070;2024-03-02T01:55:58;5.50;99.90
11264;DHT22;5689;48.798;9.070;2024-03-02T01:58:29;5.70;99.90
11264;DHT22;5689;48.798;9.070;2024-03-02T02:00:57;5.90;99.90
11264;DHT22;5689;48.798;9.070;2024-03-02T02:03:27;6.00;99.90
11264;DHT22;5689;48.798;9.070;2024-03-02T02:05:55;6.10;99.90
11264;DHT22;5689;48.798;9.070;2024-03-02T02:08:23;6.20;99.90
11264;DHT22;5689;48.798;9.070;2024-03-02T02:10:51;6.20;99.90
11264;DHT22;5689;48.798;9.070;2024-03-02T02:13:19;6.30;99.90
11264;DHT22;5689;48.798;9.070;2024-03-02T02:15:49;6.40;99.90
11264;DHT22;5689;48.798;9.070;2024-03-02T02:18:17;6.40;99.90
11264;DHT22;5689;48.798;9.070;2024-03-02T02:20:45;6.40;99.90
11264;DHT22;5689;48.798;9.070;2024-03-02T02:23:14;6.40;99.90
11264;DHT22;5689;48.798;9.070;2024-03-02T02:25:43;6.40;99.90
11264;DHT22;5689;48.798;9.070;2024-03-02T02:28:11;6.40;99.90
11264;DHT22;5689;48.798;9.070;2024-03-02T02:30:39;6.40;99.90
11264;DHT22;5689;48.798;9.070;2024-03-02T02:33:07;6.30;99.90
11264;DHT22;5689;48.798;9.070;2024-03-02T02:35:36;6.30;99.90
11264;DHT22;5689;48.798;9.070;2024-03-02T02:38:04;6.30;99.90
11264;DHT22;5689;48.798;9.070;2024-03-02T02:40:34;6.20;99.90
11264;DHT22;5689;48.798;9.070;2024-03-02T02:43:03;6.30;99.90
11264;DHT22;5689;48.798;9.070;2024-03-02T02:45:31;6.30;99.90
11264;DHT22;5689;48.798;9.070;2024-03-02T02:47:59;6.30;99.90
11264;DHT22;5689;48.798;9.070;2024-03-02T02:50:29;6.20;99.90
11264;DHT22;5689;48.798;9.070;2024-03-02T02:52:57;6.20;99.90
11264;DHT22;5689;48.798;9.070;2024-03-02T02:55:25;6.30;99.90
11264;DHT22;5689;48.798;9.070;2024-03-02T02:57:55;6.30;99.90
11264;DHT22;5689;48.798;9.070;2024-03-02T03:00:23;6.30;99.90
11264;DHT22;5689;48.798;9.070;2024-03-02T03:02:52;6.30;99.90
11264;DHT22;5689;48.798;9.070;2024-03-02T03:05:20;6.30;99.90
11264;DHT22;5689;48.798;9.070;2024-03-02T03:07:48;6.30;99.90
11264;DHT22;5689;48.798;9.070;2024-03-02T03:10:17;6.40;99.90
11264;DHT22;5689;48.798;9.070;2024-03-02T03:12:45;6.40;99.90
11264;DHT22;5689;48.798;9.070;2024-03-02T03:15:15;6.40;99.90
11264;DHT22;5689;48.798;9.070;2024-03-02T03:17:44;6.40;99.90
11264;DHT22;5689;48.798;9.070;2024-03-02T03:20:14;6.50;99.90
11264;DHT22;5689;48.798;9.070;2024-03-02T03:22:42;6.50;99.90
11264;DHT22;5689;48.798;9.070;2024-03-02T03:25:10;6.50;99.90
11264;DHT22;5689;48.798;9.070;2024-03-02T03:27:39;6.40;99.90
11264;DHT22;5689;48.798;9.070;2024-03-02T03:30:07;6.40;99.90
11264;DHT22;5689;48.798;9.070;2024-03-02T03:32:37;6.50;99.90
11264;DHT22;5689;48.798;9.070;2024-03-02T03:35:06;6.50;99.90
11264;DHT22;5689;48.798;9.070;2024-03-02T03:37:35;6.40;99.90
11264;DHT22;5689;48.798;9.070;2024-03-02T03:40:05;6.40;99.90
11264;DHT22;5689;48.798;9.070;2024-03-02T03:42:36;6.40;99.90
11264;DHT22;5689;48.798;9.070;2024-03-02T03:45:05;6.40;99.90
11264;DHT22;5689;48.798;9.070;2024-03-02T03:47:34;6.50;99.90
11264;DHT22;5689;48.798;9.070;2024-03-02T03:50:05;6.40;99.90
11264;DHT22;5689;48.798;9.070;2024-03-02T03:52:34;6.50;99.90
11264;DHT22;5689;48.798;9.070;2024-03-02T03:55:02;6.50;99.90
11264;DHT22;5689;48.798;9.070;2024-03-02T03:57:32;6.50;99.90
11264;DHT22;5689;48.798;9.070;2024-03-02T04:00:00;6.50;99.90
11264;DHT22;5689;48.798;9.070;2024-03-02T04:02:37;6.50;99.90
11264;DHT22;5689;48.798;9.070;2024-03-02T04:05:08;6.40;99.90
11264;DHT22;5689;48.798;9.070;2024-03-02T04:07:37;6.40;99.90
11264;DHT22;5689;48.798;9.070;2024-03-02T04:10:08;6.40;99.90
11264;DHT22;5689;48.798;9.070;2024-03-02T04:12:36;6.40;99.90
11264;DHT22;5689;48.798;9.070;2024-03-02T04:15:05;6.40;99.90
11264;DHT22;5689;48.798;9.070;2024-03-02T04:17:34;6.40;99.90
11264;DHT22;5689;48.798;9.070;2024-03-02T04:20:04;6.40;99.90
11264;DHT22;5689;48.798;9.070;2024-03-02T04:22:34;6.40;99.90
11264;DHT22;5689;48.798;9.070;2024-03-02T04:25:03;6.50;99.90
11264;DHT22;5689;48.798;9.070;2024-03-02T04:27:33;6.50;99.90
11264;DHT22;5689;48.798;9.070;2024-03-02T04:30:03;6.40;99.90
11264;DHT22;5689;48.798;9.070;2024-03-02T04:32:32;6.40;99.90
11264;DHT22;5689;48.798;9.070;2024-03-02T04:35:00;6.40;99.90
11264;DHT22;5689;48.798;9.070;2024-03-02T04:37:29;6.40;99.90
11264;DHT22;5689;48.798;9.070;2024-03-02T04:39:59;6.40;99.90
11264;DHT22;5689;48.798;9.070;2024-03-02T04:42:27;6.30;99.90
11264;DHT22;5689;48.798;9.070;2024-03-02T04:44:56;6.40;99.90
11264;DHT22;5689;48.798;9.070;2024-03-02T04:47:24;6.40;99.90
11264;DHT22;5689;48.798;9.070;2024-03-02T04:49:52;6.40;99.90
11264;DHT22;5689;48.798;9.070;2024-03-02T04:52:20;6.40;99.90
11264;DHT22;5689;48.798;9.070;2024-03-02T04:54:48;6.40;99.90
11264;DHT22;5689;48.798;9.070;2024-03-02T04:57:36;6.40;99.90
11264;DHT22;5689;48.798;9.070;2024-03-02T05:00:05;6.40;99.90
11264;DHT22;5689;48.798;9.070;2024-03-02T05:02:33;6.30;99.90
11264;DHT22;5689;48.798;9.070;2024-03-02T05:05:02;6.40;99.90
11264;DHT22;5689;48.798;9.070;2024-03-02T05:07:30;6.30;99.90
11264;DHT22;5689;48.798;9.070;2024-03-02T05:09:58;6.30;99.90
11264;DHT22;5689;48.798;9.070;2024-03-02T05:12:26;6.30;99.90
11264;DHT22;5689;48.798;9.070;2024-03-02T05:15:23;6.40;99.90
11264;DHT22;5689;48.798;9.070;2024-03-02T05:17:51;6.30;99.90
11264;DHT22;5689;48.798;9.070;2024-03-02T05:20:20;6.30;99.90
11264;DHT22;5689;48.798;9.070;2024-03-02T05:22:48;6.40;99.90
11264;DHT22;5689;48.798;9.070;2024-03-02T05:25:16;6.40;99.90
11264;DHT22;5689;48.798;9.070;2024-03-02T05:27:45;6.40;99.90
11264;DHT22;5689;48.798;9.070;2024-03-02T05:30:13;6.40;99.90
11264;DHT22;5689;48.798;9.070;2024-03-02T05:32:43;6.40;99.90
11264;DHT22;5689;48.798;9.070;2024-03-02T05:35:11;6.40;99.90
11264;DHT22;5689;48.798;9.070;2024-03-02T05:37:40;6.40;99.90
11264;DHT22;5689;48.798;9.070;2024-03-02T05:40:08;6.40;99.90
11264;DHT22;5689;48.798;9.070;2024-03-02T05:42:38;6.40;99.90
11264;DHT22;5689;48.798;9.070;2024-03-02T05:45:08;6.40;99.90
11264;DHT22;5689;48.798;9.070;2024-03-02T05:47:36;6.40;99.90
11264;DHT22;5689;48.798;9.070;2024-03-02T05:50:07;6.40;99.90
11264;DHT22;5689;48.798;9.070;2024-03-02T05:52:35;6.30;99.90
11264;DHT22;5689;48.798;9.070;2024-03-02T05:55:04;6.30;99.90
11264;DHT22;5689;48.798;9.070;2024-03-02T05:57:32;6.30;99.90
11264;DHT22;5689;48.798;9.070;2024-03-02T06:00:15;6.30;99.90
11264;DHT22;5689;48.798;9.070;2024-03-02T06:02:44;6.30;99.90
11264;DHT22;5689;48.798;9.070;2024-03-02T06:05:14;6.30;99.90
11264;DHT22;5689;48.798;9.070;2024-03-02T06:07:43;6.30;99.90
11264;DHT22;5689;48.798;9.070;2024-03-02T06:10:11;6.30;99.90
11264;DHT22;5689;48.798;9.070;2024-03-02T06:12:39;6.40;99.90
11264;DHT22;5689;48.798;9.070;2024-03-02T06:15:09;6.40;99.90
11264;DHT22;5689;48.798;9.070;2024-03-02T06:17:37;6.40;99.90
11264;DHT22;5689;48.798;9.070;2024-03-02T06:20:06;6.50;99.90
11264;DHT22;5689;48.798;9.070;2024-03-02T06:22:36;6.50;99.90
11264;DHT22;5689;48.798;9.070;2024-03-02T06:25:05;6.50;99.90
11264;DHT22;5689;48.798;9.070;2024-03-02T06:27:33;6.50;99.90
11264;DHT22;5689;48.798;9.070;2024-03-02T06:30:01;6.60;99.90
11264;DHT22;5689;48.798;9.070;2024-03-02T06:32:31;6.60;99.90
11264;DHT22;5689;48.798;9.070;2024-03-02T06:34:59;6.70;99.90
11264;DHT22;5689;48.798;9.070;2024-03-02T06:37:27;6.70;99.90
11264;DHT22;5689;48.798;9.070;2024-03-02T06:39:57;6.70;99.90
11264;DHT22;5689;48.798;9.070;2024-03-02T06:42:25;6.70;99.90
11264;DHT22;5689;48.798;9.070;2024-03-02T06:44:53;6.70;99.90
11264;DHT22;5689;48.798;9.070;2024-03-02T06:47:22;6.80;99.90
11264;DHT22;5689;48.798;9.070;2024-03-02T06:49:51;6.80;99.90
11264;DHT22;5689;48.798;9.070;2024-03-02T06:52:20;6.80;99.90
11264;DHT22;5689;48.798;9.070;2024-03-02T06:54:51;6.80;99.90
11264;DHT22;5689;48.798;9.070;2024-03-02T06:57:21;6.80;99.90
11264;DHT22;5689;48.798;9.070;2024-03-02T06:59:49;6.90;99.90
11264;DHT22;5689;48.798;9.070;2024-03-02T07:02:20;6.90;99.90
11264;DHT22;5689;48.798;9.070;2024-03-02T07:04:50;6.90;99.90
11264;DHT22;5689;48.798;9.070;2024-03-02T07:07:19;7.00;99.90
11264;DHT22;5689;48.798;9.070;2024-03-02T07:09:47;7.00;99.90
11264;DHT22;5689;48.798;9.070;2024-03-02T07:12:15;7.00;99.90
11264;DHT22;5689;48.798;9.070;2024-03-02T07:14:45;7.10;99.90
11264;DHT22;5689;48.798;9.070;2024-03-02T07:17:37;7.20;99.90
11264;DHT22;5689;48.798;9.070;2024-03-02T07:20:06;7.20;99.90
11264;DHT22;5689;48.798;9.070;2024-03-02T07:22:34;7.30;99.90
11264;DHT22;5689;48.798;9.070;2024-03-02T07:25:05;7.40;99.90
11264;DHT22;5689;48.798;9.070;2024-03-02T07:27:34;7.40;99.90
11264;DHT22;5689;48.798;9.070;2024-03-02T07:30:04;7.40;99.90
11264;DHT22;5689;48.798;9.070;2024-03-02T07:32:33;7.50;99.90
11264;DHT22;5689;48.798;9.070;2024-03-02T07:35:02;7.50;99.90
11264;DHT22;5689;48.798;9.070;2024-03-02T07:37:30;7.50;99.90
11264;DHT22;5689;48.798;9.070;2024-03-02T07:39:58;7.60;99.90
11264;DHT22;5689;48.798;9.070;2024-03-02T07:42:27;7.70;99.90
11264;DHT22;5689;48.798;9.070;2024-03-02T07:44:56;7.70;99.90
11264;DHT22;5689;48.798;9.070;2024-03-02T07:47:25;7.80;99.90
11264;DHT22;5689;48.798;9.070;2024-03-02T07:49:53;7.80;99.90
11264;DHT22;5689;48.798;9.070;2024-03-02T07:52:22;7.80;99.90
11264;DHT22;5689;48.798;9.070;2024-03-02T07:54:50;7.80;99.90
11264;DHT22;5689;48.798;9.070;2024-03-02T07:57:18;7.70;99.90
11264;DHT22;5689;48.798;9.070;2024-03-02T07:59:46;7.60;99.90
11264;DHT22;5689;48.798;9.070;2024-03-02T08:02:16;7.60;99.90
11264;DHT22;5689;48.798;9.070;2024-03-02T08:04:46;7.70;99.90
11264;DHT22;5689;48.798;9.070;2024-03-02T08:07:14;7.80;99.90
11264;DHT22;5689;48.798;9.070;2024-03-02T08:09:42;7.90;99.90
11264;DHT22;5689;48.798;9.070;2024-03-02T08:12:10;8.60;99.90
11264;DHT22;5689;48.798;9.070;2024-03-02T08:14:38;9.50;99.90
11264;DHT22;5689;48.798;9.070;2024-03-02T08:17:07;9.70;99.90
11264;DHT22;5689;48.798;9.070;2024-03-02T08:19:36;9.60;99.90
11264;DHT22;5689;48.798;9.070;2024-03-02T08:22:07;9.80;99.90
11264;DHT22;5689;48.798;9.070;2024-03-02T08:24:35;10.70;99.90
11264;DHT22;5689;48.798;9.070;2024-03-02T08:27:04;11.20;99.90
11264;DHT22;5689;48.798;9.070;2024-03-02T08:29:33;12.00;99.90
11264;DHT22;5689;48.798;9.070;2024-03-02T08:32:01;13.20;99.90
11264;DHT22;5689;48.798;9.070;2024-03-02T08:34:29;13.80;99.90
11264;DHT22;5689;48.798;9.070;2024-03-02T08:36:57;13.60;99.90
11264;DHT22;5689;48.798;9.070;2024-03-02T08:39:27;13.20;98.60
11264;DHT22;5689;48.798;9.070;2024-03-02T08:41:55;13.40;98.20
11264;DHT22;5689;48.798;9.070;2024-03-02T08:44:23;13.80;97.10
11264;DHT22;5689;48.798;9.070;2024-03-02T08:46:52;14.40;97.10
11264;DHT22;5689;48.798;9.070;2024-03-02T08:49:20;15.30;94.60
11264;DHT22;5689;48.798;9.070;2024-03-02T08:51:48;14.60;96.00
11264;DHT22;5689;48.798;9.070;2024-03-02T08:54:21;14.60;95.40
11264;DHT22;5689;48.798;9.070;2024-03-02T08:56:51;15.20;95.60
11264;DHT22;5689;48.798;9.070;2024-03-02T08:59:19;16.00;93.90
11264;DHT22;5689;48.798;9.070;2024-03-02T09:01:47;14.90;95.40
11264;DHT22;5689;48.798;9.070;2024-03-02T09:04:15;16.60;93.20
11264;DHT22;5689;48.798;9.070;2024-03-02T09:06:43;15.20;93.00
11264;DHT22;5689;48.798;9.070;2024-03-02T09:09:12;14.50;93.90
11264;DHT22;5689;48.798;9.070;2024-03-02T09:11:40;15.00;94.20
11264;DHT22;5689;48.798;9.070;2024-03-02T09:14:09;16.90;91.00
11264;DHT22;5689;48.798;9.070;2024-03-02T09:16:37;16.40;91.30
11264;DHT22;5689;48.798;9.070;2024-03-02T09:19:06;17.70;90.20
11264;DHT22;5689;48.798;9.070;2024-03-02T09:21:34;18.20;84.70
11264;DHT22;5689;48.798;9.070;2024-03-02T09:24:02;19.50;81.90
11264;DHT22;5689;48.798;9.070;2024-03-02T09:26:31;16.90;82.80
11264;DHT22;5689;48.798;9.070;2024-03-02T09:28:59;16.70;89.20
11264;DHT22;5689;48.798;9.070;2024-03-02T09:31:29;19.20;81.60
11264;DHT22;5689;48.798;9.070;2024-03-02T09:33:57;18.50;81.00
11264;DHT22;5689;48.798;9.070;2024-03-02T09:36:25;18.30;77.40
11264;DHT22;5689;48.798;9.070;2024-03-02T09:38:53;18.40;77.40
11264;DHT22;5689;48.798;9.070;2024-03-02T09:41:21;18.70;77.80
11264;DHT22;5689;48.798;9.070;2024-03-02T09:43:50;20.20;75.70
11264;DHT22;5689;48.798;9.070;2024-03-02T09:46:19;20.10;73.50
11264;DHT22;5689;48.798;9.070;2024-03-02T09:48:49;19.50;72.10
11264;DHT22;5689;48.798;9.070;2024-03-02T09:51:17;19.00;75.80
11264;DHT22;5689;48.798;9.070;2024-03-02T09:53:47;19.20;74.30
11264;DHT22;5689;48.798;9.070;2024-03-02T09:56:15;18.80;73.60
11264;DHT22;5689;48.798;9.070;2024-03-02T09:58:45;17.80;77.10
11264;DHT22;5689;48.798;9.070;2024-03-02T10:01:13;19.10;74.90
11264;DHT22;5689;48.798;9.070;2024-03-02T10:03:42;18.40;73.30
11264;DHT22;5689;48.798;9.070;2024-03-02T10:06:24;18.00;75.60
11264;DHT22;5689;48.798;9.070;2024-03-02T10:08:53;17.90;74.30
11264;DHT22;5689;48.798;9.070;2024-03-02T10:11:29;19.20;76.50
11264;DHT22;5689;48.798;9.070;2024-03-02T10:14:06;20.30;75.50
11264;DHT22;5689;48.798;9.070;2024-03-02T11:08:52;25.00;55.00
11264;DHT22;5689;48.798;9.070;2024-03-02T11:11:29;25.30;55.00
11264;DHT22;5689;48.798;9.070;2024-03-02T11:14:01;22.80;57.60
11264;DHT22;5689;48.798;9.070;2024-03-02T11:16:36;22.30;58.80
11264;DHT22;5689;48.798;9.070;2024-03-02T11:19:07;24.00;58.40
11264;DHT22;5689;48.798;9.070;2024-03-02T11:21:37;24.20;57.10
11264;DHT22;5689;48.798;9.070;2024-03-02T11:24:29;24.50;57.50
11264;DHT22;5689;48.798;9.070;2024-03-02T11:27:03;25.40;55.40
11264;DHT22;5689;48.798;9.070;2024-03-02T11:29:44;25.40;54.70
11264;DHT22;5689;48.798;9.070;2024-03-02T11:32:20;27.30;53.20
11264;DHT22;5689;48.798;9.070;2024-03-02T11:34:50;24.10;57.60
11264;DHT22;5689;48.798;9.070;2024-03-02T11:37:19;24.60;55.00
11264;DHT22;5689;48.798;9.070;2024-03-02T11:39:50;26.00;54.10
11264;DHT22;5689;48.798;9.070;2024-03-02T11:42:19;27.40;50.60
11264;DHT22;5689;48.798;9.070;2024-03-02T11:44:47;25.80;53.20
11264;DHT22;5689;48.798;9.070;2024-03-02T11:47:17;26.00;54.30
11264;DHT22;5689;48.798;9.070;2024-03-02T11:49:46;23.00;55.50
11264;DHT22;5689;48.798;9.070;2024-03-02T11:52:17;21.70;59.10
11264;DHT22;5689;48.798;9.070;2024-03-02T11:54:47;21.00;60.30
11264;DHT22;5689;48.798;9.070;2024-03-02T11:57:19;20.00;62.10
11264;DHT22;5689;48.798;9.070;2024-03-02T11:59:47;21.50;59.50
11264;DHT22;5689;48.798;9.070;2024-03-02T12:02:18;21.60;60.00
11264;DHT22;5689;48.798;9.070;2024-03-02T12:04:47;22.60;58.40
11264;DHT22;5689;48.798;9.070;2024-03-02T12:07:19;22.30;58.20
11264;DHT22;5689;48.798;9.070;2024-03-02T12:09:49;22.30;59.60
11264;DHT22;5689;48.798;9.070;2024-03-02T12:12:20;22.90;59.10
11264;DHT22;5689;48.798;9.070;2024-03-02T12:14:52;23.40;57.20
11264;DHT22;5689;48.798;9.070;2024-03-02T12:17:22;24.40;55.90
11264;DHT22;5689;48.798;9.070;2024-03-02T12:19:50;23.10;56.50
11264;DHT22;5689;48.798;9.070;2024-03-02T12:22:18;22.40;57.00
11264;DHT22;5689;48.798;9.070;2024-03-02T12:24:46;23.10;57.20
11264;DHT22;5689;48.798;9.070;2024-03-02T12:27:15;23.30;57.50
11264;DHT22;5689;48.798;9.070;2024-03-02T12:29:45;24.50;55.30
11264;DHT22;5689;48.798;9.070;2024-03-02T12:32:13;24.30;54.90
11264;DHT22;5689;48.798;9.070;2024-03-02T12:34:42;23.80;56.40
11264;DHT22;5689;48.798;9.070;2024-03-02T12:37:12;23.10;57.20
11264;DHT22;5689;48.798;9.070;2024-03-02T12:39:40;24.40;55.50
11264;DHT22;5689;48.798;9.070;2024-03-02T12:42:12;26.60;52.40
11264;DHT22;5689;48.798;9.070;2024-03-02T12:44:40;26.10;52.60
11264;DHT22;5689;48.798;9.070;2024-03-02T12:47:09;25.30;53.20
11264;DHT22;5689;48.798;9.070;2024-03-02T12:49:40;24.10;54.80
11264;DHT22;5689;48.798;9.070;2024-03-02T12:52:08;25.30;53.50
11264;DHT22;5689;48.798;9.070;2024-03-02T12:54:36;24.40;54.90
11264;DHT22;5689;48.798;9.070;2024-03-02T12:57:04;27.70;50.60
11264;DHT22;5689;48.798;9.070;2024-03-02T12:59:32;28.00;48.90
11264;DHT22;5689;48.798;9.070;2024-03-02T13:02:00;28.00;51.00
11264;DHT22;5689;48.798;9.070;2024-03-02T13:04:30;25.90;51.30
11264;DHT22;5689;48.798;9.070;2024-03-02T13:06:58;25.50;53.50
11264;DHT22;5689;48.798;9.070;2024-03-02T13:09:26;26.10;52.90
11264;DHT22;5689;48.798;9.070;2024-03-02T13:11:55;23.80;54.10
11264;DHT22;5689;48.798;9.070;2024-03-02T13:14:23;24.10;55.00
11264;DHT22;5689;48.798;9.070;2024-03-02T13:16:53;22.50;57.20
11264;DHT22;5689;48.798;9.070;2024-03-02T13:19:20;22.10;56.60
11264;DHT22;5689;48.798;9.070;2024-03-02T13:21:50;23.60;56.20
11264;DHT22;5689;48.798;9.070;2024-03-02T13:24:18;23.40;55.70
11264;DHT22;5689;48.798;9.070;2024-03-02T13:26:46;23.30;55.10
11264;DHT22;5689;48.798;9.070;2024-03-02T13:29:14;23.40;55.60
11264;DHT22;5689;48.798;9.070;2024-03-02T13:31:42;24.50;54.20
11264;DHT22;5689;48.798;9.070;2024-03-02T13:34:10;24.10;54.30
11264;DHT22;5689;48.798;9.070;2024-03-02T13:36:39;22.70;56.80
11264;DHT22;5689;48.798;9.070;2024-03-02T13:39:08;20.30;59.30
11264;DHT22;5689;48.798;9.070;2024-03-02T13:41:37;20.10;60.00
11264;DHT22;5689;48.798;9.070;2024-03-02T13:44:05;20.60;59.30
11264;DHT22;5689;48.798;9.070;2024-03-02T13:46:33;22.70;56.90
11264;DHT22;5689;48.798;9.070;2024-03-02T13:49:01;22.70;55.60
11264;DHT22;5689;48.798;9.070;2024-03-02T13:51:30;22.20;56.10
11264;DHT22;5689;48.798;9.070;2024-03-02T13:54:00;21.80;57.30
11264;DHT22;5689;48.798;9.070;2024-03-02T13:56:31;21.20;57.60
11264;DHT22;5689;48.798;9.070;2024-03-02T13:58:59;20.90;57.70
11264;DHT22;5689;48.798;9.070;2024-03-02T14:01:28;19.80;59.40
11264;DHT22;5689;48.798;9.070;2024-03-02T14:03:56;19.30;59.60
11264;DHT22;5689;48.798;9.070;2024-03-02T14:06:24;19.00;61.30
11264;DHT22;5689;48.798;9.070;2024-03-02T14:08:53;19.20;60.60
11264;DHT22;5689;48.798;9.070;2024-03-02T14:11:21;19.30;60.50
11264;DHT22;5689;48.798;9.070;2024-03-02T14:13:51;19.40;60.70
11264;DHT22;5689;48.798;9.070;2024-03-02T14:16:21;20.00;60.20
11264;DHT22;5689;48.798;9.070;2024-03-02T14:18:49;20.50;59.70
11264;DHT22;5689;48.798;9.070;2024-03-02T14:21:17;22.60;57.60
11264;DHT22;5689;48.798;9.070;2024-03-02T14:23:45;23.50;55.70
11264;DHT22;5689;48.798;9.070;2024-03-02T14:26:13;21.70;56.80
11264;DHT22;5689;48.798;9.070;2024-03-02T14:28:41;20.70;59.00
11264;DHT22;5689;48.798;9.070;2024-03-02T14:31:14;20.70;59.50
11264;DHT22;5689;48.798;9.070;2024-03-02T14:33:42;20.90;59.20
11264;DHT22;5689;48.798;9.070;2024-03-02T14:36:10;20.50;59.00
11264;DHT22;5689;48.798;9.070;2024-03-02T14:38:38;19.90;61.30
11264;DHT22;5689;48.798;9.070;2024-03-02T14:41:06;21.30;59.20
11264;DHT22;5689;48.798;9.070;2024-03-02T14:43:34;21.40;57.10
11264;DHT22;5689;48.798;9.070;2024-03-02T14:46:04;20.70;59.00
11264;DHT22;5689;48.798;9.070;2024-03-02T14:48:35;20.40;58.40
11264;DHT22;5689;48.798;9.070;2024-03-02T14:51:03;20.50;56.40
11264;DHT22;5689;48.798;9.070;2024-03-02T14:53:31;20.20;58.20
11264;DHT22;5689;48.798;9.070;2024-03-02T14:55:59;21.80;56.50
11264;DHT22;5689;48.798;9.070;2024-03-02T14:58:30;21.60;56.40
11264;DHT22;5689;48.798;9.070;2024-03-02T15:00:58;21.70;55.70
11264;DHT22;5689;48.798;9.070;2024-03-02T15:03:26;23.60;54.20
11264;DHT22;5689;48.798;9.070;2024-03-02T15:05:56;22.70;53.90
11264;DHT22;5689;48.798;9.070;2024-03-02T15:08:24;21.60;55.90
11264;DHT22;5689;48.798;9.070;2024-03-02T15:10:52;23.00;55.70
11264;DHT22;5689;48.798;9.070;2024-03-02T15:13:22;23.80;54.40
11264;DHT22;5689;48.798;9.070;2024-03-02T15:15:52;21.90;56.90
11264;DHT22;5689;48.798;9.070;2024-03-02T15:18:20;19.90;57.90
11264;DHT22;5689;48.798;9.070;2024-03-02T15:20:48;18.90;58.10
11264;DHT22;5689;48.798;9.070;2024-03-02T15:23:17;17.90;60.20
11264;DHT22;5689;48.798;9.070;2024-03-02T15:25:47;17.50;59.70
11264;DHT22;5689;48.798;9.070;2024-03-02T15:28:15;17.70;60.00
11264;DHT22;5689;48.798;9.070;2024-03-02T15:30:43;17.30;59.90
11264;DHT22;5689;48.798;9.070;2024-03-02T15:33:11;17.20;60.00
11264;DHT22;5689;48.798;9.070;2024-03-02T15:35:39;17.20;60.60
11264;DHT22;5689;48.798;9.070;2024-03-02T15:38:07;17.10;60.30
11264;DHT22;5689;48.798;9.070;2024-03-02T15:40:42;17.30;60.40
11264;DHT22;5689;48.798;9.070;2024-03-02T15:43:12;17.40;61.10
11264;DHT22;5689;48.798;9.070;2024-03-02T15:45:40;17.20;60.00
11264;DHT22;5689;48.798;9.070;2024-03-02T15:48:09;16.40;61.20
11264;DHT22;5689;48.798;9.070;2024-03-02T15:50:37;16.30;61.60
11264;DHT22;5689;48.798;9.070;2024-03-02T15:53:05;16.00;62.50
11264;DHT22;5689;48.798;9.070;2024-03-02T15:55:33;16.30;63.70
11264;DHT22;5689;48.798;9.070;2024-03-02T15:58:03;16.20;61.80
11264;DHT22;5689;48.798;9.070;2024-03-02T16:00:32;15.60;62.60
11264;DHT22;5689;48.798;9.070;2024-03-02T16:03:02;15.20;63.20
11264;DHT22;5689;48.798;9.070;2024-03-02T16:05:30;15.20;64.20
11264;DHT22;5689;48.798;9.070;2024-03-02T16:07:58;15.20;64.30
11264;DHT22;5689;48.798;9.070;2024-03-02T16:10:26;15.20;64.30
11264;DHT22;5689;48.798;9.070;2024-03-02T16:12:54;15.10;64.60
11264;DHT22;5689;48.798;9.070;2024-03-02T16:15:28;15.00;64.70
11264;DHT22;5689;48.798;9.070;2024-03-02T16:17:56;15.10;65.40
11264;DHT22;5689;48.798;9.070;2024-03-02T16:20:25;15.00;64.90
11264;DHT22;5689;48.798;9.070;2024-03-02T16:22:54;14.90;65.40
11264;DHT22;5689;48.798;9.070;2024-03-02T16:25:22;14.70;65.80
11264;DHT22;5689;48.798;9.070;2024-03-02T16:27:51;14.60;65.60
11264;DHT22;5689;48.798;9.070;2024-03-02T16:30:19;14.60;65.90
11264;DHT22;5689;48.798;9.070;2024-03-02T16:32:49;14.70;66.10
11264;DHT22;5689;48.798;9.070;2024-03-02T16:35:17;14.50;66.70
11264;DHT22;5689;48.798;9.070;2024-03-02T16:37:45;14.30;67.00
11264;DHT22;5689;48.798;9.070;2024-03-02T16:40:14;14.20;67.80
11264;DHT22;5689;48.798;9.070;2024-03-02T16:42:42;14.30;67.90
11264;DHT22;5689;48.798;9.070;2024-03-02T16:45:10;14.40;68.30
11264;DHT22;5689;48.798;9.070;2024-03-02T16:47:39;14.20;68.90
11264;DHT22;5689;48.798;9.070;2024-03-02T16:50:09;14.10;69.70
11264;DHT22;5689;48.798;9.070;2024-03-02T16:52:42;14.10;69.70
11264;DHT22;5689;48.798;9.070;2024-03-02T16:55:10;14.20;69.80
11264;DHT22;5689;48.798;9.070;2024-03-02T16:57:38;14.10;70.40
11264;DHT22;5689;48.798;9.070;2024-03-02T17:00:07;14.00;70.70